sensor_id;sensor_type;location;lat;lon;timestamp;pressure;altitude;pressure_sealevel;temperature;humidity
70781;BME280;59514;48.810;2.134;2023-06-10T00:01:38;64443.81;;;-141.13;100.00
70781;BME280;59514;48.810;2.134;2023-06-10T00:04:04;64443.81;;;-141.13;100.00
70781;BME280;59514;48.810;2.134;2023-06-10T00:06:30;64443.81;;;-141.13;100.00
70781;BME280;59514;48.810;2.134;2023-06-10T00:09:00;64443.81;;;-141.13;100.00
70781;BME280;59514;48.810;2.134;2023-06-10T00:11:26;64443.81;;;-141.13;100.00
70781;BME280;59514;48.810;2.134;2023-06-10T00:13:51;64443.81;;;-141.13;100.00
70781;BME280;59514;48.810;2.134;2023-06-10T00:16:16;64443.81;;;-141.13;100.00
70781;BME280;59514;48.810;2.134;2023-06-10T00:18:43;64443.81;;;-141.13;100.00
70781;BME280;59514;48.810;2.134;2023-06-10T00:21:09;64443.81;;;-141.13;100.00
70781;BME280;59514;48.810;2.134;2023-06-10T00:23:34;64443.81;;;-141.13;100.00
70781;BME280;59514;48.810;2.134;2023-06-10T00:26:03;64443.81;;;-141.13;100.00
70781;BME280;59514;48.810;2.134;2023-06-10T00:28:29;64443.81;;;-141.13;100.00
70781;BME280;59514;48.810;2.134;2023-06-10T00:30:54;64443.81;;;-141.13;100.00
70781;BME280;59514;48.810;2.134;2023-06-10T00:33:20;64443.81;;;-141.13;100.00
70781;BME280;59514;48.810;2.134;2023-06-10T00:35:46;64443.81;;;-141.13;100.00
70781;BME280;59514;48.810;2.134;2023-06-10T00:38:13;64443.81;;;-141.13;100.00
70781;BME280;59514;48.810;2.134;2023-06-10T00:40:40;64443.81;;;-141.13;100.00
70781;BME280;59514;48.810;2.134;2023-06-10T00:43:08;64443.81;;;-141.13;100.00
70781;BME280;59514;48.810;2.134;2023-06-10T00:45:34;64443.81;;;-141.13;100.00
70781;BME280;59514;48.810;2.134;2023-06-10T00:48:00;64443.81;;;-141.13;100.00
70781;BME280;59514;48.810;2.134;2023-06-10T00:50:26;64443.81;;;-141.13;100.00
70781;BME280;59514;48.810;2.134;2023-06-10T00:52:53;64443.81;;;-141.13;100.00
70781;BME280;59514;48.810;2.134;2023-06-10T00:55:20;64443.81;;;-141.13;100.00
70781;BME280;59514;48.810;2.134;2023-06-10T00:57:46;64443.81;;;-141.13;100.00
70781;BME280;59514;48.810;2.134;2023-06-10T01:00:14;64443.81;;;-141.13;100.00
70781;BME280;59514;48.810;2.134;2023-06-10T01:02:40;64443.81;;;-141.13;100.00
70781;BME280;59514;48.810;2.134;2023-06-10T01:05:06;64443.81;;;-141.13;100.00
70781;BME280;59514;48.810;2.134;2023-06-10T01:07:43;64443.81;;;-141.13;100.00
70781;BME280;59514;48.810;2.134;2023-06-10T01:10:22;64443.81;;;-141.13;100.00
70781;BME280;59514;48.810;2.134;2023-06-10T01:12:55;64443.81;;;-141.13;100.00
70781;BME280;59514;48.810;2.134;2023-06-10T01:15:24;64443.81;;;-141.13;100.00
70781;BME280;59514;48.810;2.134;2023-06-10T01:18:09;64443.81;;;-141.13;100.00
70781;BME280;59514;48.810;2.134;2023-06-10T01:20:41;64443.81;;;-141.13;100.00
70781;BME280;59514;48.810;2.134;2023-06-10T01:23:09;64443.81;;;-141.13;100.00
70781;BME280;59514;48.810;2.134;2023-06-10T01:25:38;64443.81;;;-141.13;100.00
70781;BME280;59514;48.810;2.134;2023-06-10T01:28:13;64443.81;;;-141.13;100.00
70781;BME280;59514;48.810;2.134;2023-06-10T01:31:00;64443.81;;;-141.13;100.00
70781;BME280;59514;48.810;2.134;2023-06-10T01:33:35;64443.81;;;-141.13;100.00
70781;BME280;59514;48.810;2.134;2023-06-10T01:36:02;64443.81;;;-141.13;100.00
70781;BME280;59514;48.810;2.134;2023-06-10T01:38:31;64443.81;;;-141.13;100.00
70781;BME280;59514;48.810;2.134;2023-06-10T01:40:58;64443.81;;;-141.13;100.00
70781;BME280;59514;48.810;2.134;2023-06-10T01:43:23;64443.81;;;-141.13;100.00
70781;BME280;59514;48.810;2.134;2023-06-10T01:45:49;64443.81;;;-141.13;100.00
70781;BME280;59514;48.810;2.134;2023-06-10T01:48:14;64443.81;;;-141.13;100.00
70781;BME280;59514;48.810;2.134;2023-06-10T01:50:39;64443.81;;;-141.13;100.00
70781;BME280;59514;48.810;2.134;2023-06-10T01:53:05;64443.81;;;-141.13;100.00
70781;BME280;59514;48.810;2.134;2023-06-10T01:55:31;64443.81;;;-141.13;100.00
70781;BME280;59514;48.810;2.134;2023-06-10T01:57:56;64443.81;;;-141.13;100.00
70781;BME280;59514;48.810;2.134;2023-06-10T02:00:21;64443.81;;;-141.13;100.00
70781;BME280;59514;48.810;2.134;2023-06-10T02:02:47;64443.81;;;-141.13;100.00
70781;BME280;59514;48.810;2.134;2023-06-10T02:05:12;64443.81;;;-141.13;100.00
70781;BME280;59514;48.810;2.134;2023-06-10T02:07:37;64443.81;;;-141.13;100.00
70781;BME280;59514;48.810;2.134;2023-06-10T02:10:04;64443.81;;;-141.13;100.00
70781;BME280;59514;48.810;2.134;2023-06-10T02:12:30;64443.81;;;-141.13;100.00
70781;BME280;59514;48.810;2.134;2023-06-10T02:14:55;64443.81;;;-141.13;100.00
70781;BME280;59514;48.810;2.134;2023-06-10T02:17:20;64443.81;;;-141.13;100.00
70781;BME280;59514;48.810;2.134;2023-06-10T02:19:46;64443.81;;;-141.13;100.00
70781;BME280;59514;48.810;2.134;2023-06-10T02:22:19;64443.81;;;-141.13;100.00
70781;BME280;59514;48.810;2.134;2023-06-10T02:24:44;64443.81;;;-141.13;100.00
70781;BME280;59514;48.810;2.134;2023-06-10T02:27:10;64443.81;;;-141.13;100.00
70781;BME280;59514;48.810;2.134;2023-06-10T02:29:35;64443.81;;;-141.13;100.00
70781;BME280;59514;48.810;2.134;2023-06-10T02:32:02;64443.81;;;-141.13;100.00
70781;BME280;59514;48.810;2.134;2023-06-10T02:34:27;64443.81;;;-141.13;100.00
70781;BME280;59514;48.810;2.134;2023-06-10T02:36:53;64443.81;;;-141.13;100.00
70781;BME280;59514;48.810;2.134;2023-06-10T02:39:19;64443.81;;;-141.13;100.00
70781;BME280;59514;48.810;2.134;2023-06-10T02:41:44;64443.81;;;-141.13;100.00
70781;BME280;59514;48.810;2.134;2023-06-10T02:44:09;64443.81;;;-141.13;100.00
70781;BME280;59514;48.810;2.134;2023-06-10T02:46:35;64443.81;;;-141.13;100.00
70781;BME280;59514;48.810;2.134;2023-06-10T02:49:00;64443.81;;;-141.13;100.00
70781;BME280;59514;48.810;2.134;2023-06-10T02:51:26;64443.81;;;-141.13;100.00
70781;BME280;59514;48.810;2.134;2023-06-10T02:53:52;64443.81;;;-141.13;100.00
70781;BME280;59514;48.810;2.134;2023-06-10T02:56:18;64443.81;;;-141.13;100.00
70781;BME280;59514;48.810;2.134;2023-06-10T02:58:44;64443.81;;;-141.13;100.00
70781;BME280;59514;48.810;2.134;2023-06-10T03:01:09;64443.81;;;-141.13;100.00
70781;BME280;59514;48.810;2.134;2023-06-10T03:03:35;64443.81;;;-141.13;100.00
70781;BME280;59514;48.810;2.134;2023-06-10T03:06:02;64443.81;;;-141.13;100.00
70781;BME280;59514;48.810;2.134;2023-06-10T03:08:28;64443.81;;;-141.13;100.00
70781;BME280;59514;48.810;2.134;2023-06-10T03:10:53;64443.81;;;-141.13;100.00
70781;BME280;59514;48.810;2.134;2023-06-10T03:13:18;64443.81;;;-141.13;100.00
70781;BME280;59514;48.810;2.134;2023-06-10T03:15:44;64443.81;;;-141.13;100.00
70781;BME280;59514;48.810;2.134;2023-06-10T03:18:11;64443.81;;;-141.13;100.00
70781;BME280;59514;48.810;2.134;2023-06-10T03:20:36;64443.81;;;-141.13;100.00
70781;BME280;59514;48.810;2.134;2023-06-10T03:23:03;64443.81;;;-141.13;100.00
70781;BME280;59514;48.810;2.134;2023-06-10T03:25:30;64443.81;;;-141.13;100.00
70781;BME280;59514;48.810;2.134;2023-06-10T03:27:55;64443.81;;;-141.13;100.00
70781;BME280;59514;48.810;2.134;2023-06-10T03:30:21;64443.81;;;-141.13;100.00
70781;BME280;59514;48.810;2.134;2023-06-10T03:32:46;64443.81;;;-141.13;100.00
70781;BME280;59514;48.810;2.134;2023-06-10T03:35:12;64443.81;;;-141.13;100.00
70781;BME280;59514;48.810;2.134;2023-06-10T03:37:37;64443.81;;;-141.13;100.00
70781;BME280;59514;48.810;2.134;2023-06-10T03:40:02;64443.81;;;-141.13;100.00
70781;BME280;59514;48.810;2.134;2023-06-10T03:42:28;64443.81;;;-141.13;100.00
70781;BME280;59514;48.810;2.134;2023-06-10T03:44:54;64443.81;;;-141.13;100.00
70781;BME280;59514;48.810;2.134;2023-06-10T03:47:20;64443.81;;;-141.13;100.00
70781;BME280;59514;48.810;2.134;2023-06-10T03:49:46;64443.81;;;-141.13;100.00
70781;BME280;59514;48.810;2.134;2023-06-10T03:52:11;64443.81;;;-141.13;100.00
70781;BME280;59514;48.810;2.134;2023-06-10T03:54:37;64443.81;;;-141.13;100.00
70781;BME280;59514;48.810;2.134;2023-06-10T03:57:02;64443.81;;;-141.13;100.00
70781;BME280;59514;48.810;2.134;2023-06-10T03:59:28;64443.81;;;-141.13;100.00
70781;BME280;59514;48.810;2.134;2023-06-10T04:01:54;64443.81;;;-141.13;100.00
70781;BME280;59514;48.810;2.134;2023-06-10T04:04:19;64443.81;;;-141.13;100.00
70781;BME280;59514;48.810;2.134;2023-06-10T04:06:45;64443.81;;;-141.13;100.00
70781;BME280;59514;48.810;2.134;2023-06-10T04:09:11;64443.81;;;-141.13;100.00
70781;BME280;59514;48.810;2.134;2023-06-10T04:11:36;64443.81;;;-141.13;100.00
70781;BME280;59514;48.810;2.134;2023-06-10T04:14:02;64443.81;;;-141.13;100.00
70781;BME280;59514;48.810;2.134;2023-06-10T04:16:28;64443.81;;;-141.13;100.00
70781;BME280;59514;48.810;2.134;2023-06-10T04:18:53;64443.81;;;-141.13;100.00
70781;BME280;59514;48.810;2.134;2023-06-10T04:21:19;64443.81;;;-141.13;100.00
70781;BME280;59514;48.810;2.134;2023-06-10T04:23:44;64443.81;;;-141.13;100.00
70781;BME280;59514;48.810;2.134;2023-06-10T04:26:09;64443.81;;;-141.13;100.00
70781;BME280;59514;48.810;2.134;2023-06-10T04:28:37;64443.81;;;-141.13;100.00
70781;BME280;59514;48.810;2.134;2023-06-10T04:31:02;64443.81;;;-141.13;100.00
70781;BME280;59514;48.810;2.134;2023-06-10T04:33:29;64443.81;;;-141.13;100.00
70781;BME280;59514;48.810;2.134;2023-06-10T04:35:55;64443.81;;;-141.13;100.00
70781;BME280;59514;48.810;2.134;2023-06-10T04:38:20;64443.81;;;-141.13;100.00
70781;BME280;59514;48.810;2.134;2023-06-10T04:40:46;64443.81;;;-141.13;100.00
70781;BME280;59514;48.810;2.134;2023-06-10T04:43:11;64443.81;;;-141.13;100.00
70781;BME280;59514;48.810;2.134;2023-06-10T04:45:38;64443.81;;;-141.13;100.00
70781;BME280;59514;48.810;2.134;2023-06-10T04:48:03;64443.81;;;-141.13;100.00
70781;BME280;59514;48.810;2.134;2023-06-10T04:50:28;64443.81;;;-141.13;100.00
70781;BME280;59514;48.810;2.134;2023-06-10T04:52:54;64443.81;;;-141.13;100.00
70781;BME280;59514;48.810;2.134;2023-06-10T04:55:22;64443.81;;;-141.13;100.00
70781;BME280;59514;48.810;2.134;2023-06-10T04:57:48;64443.81;;;-141.13;100.00
70781;BME280;59514;48.810;2.134;2023-06-10T05:00:13;64443.81;;;-141.13;100.00
70781;BME280;59514;48.810;2.134;2023-06-10T05:02:39;64443.81;;;-141.13;100.00
70781;BME280;59514;48.810;2.134;2023-06-10T05:05:04;64443.81;;;-141.13;100.00
70781;BME280;59514;48.810;2.134;2023-06-10T05:07:31;64443.81;;;-141.13;100.00
70781;BME280;59514;48.810;2.134;2023-06-10T05:09:56;64443.81;;;-141.13;100.00
70781;BME280;59514;48.810;2.134;2023-06-10T05:12:21;64443.81;;;-141.13;100.00
70781;BME280;59514;48.810;2.134;2023-06-10T05:14:47;64443.81;;;-141.13;100.00
70781;BME280;59514;48.810;2.134;2023-06-10T05:17:12;64443.81;;;-141.13;100.00
70781;BME280;59514;48.810;2.134;2023-06-10T05:19:38;64443.81;;;-141.13;100.00
70781;BME280;59514;48.810;2.134;2023-06-10T05:22:03;64443.81;;;-141.13;100.00
70781;BME280;59514;48.810;2.134;2023-06-10T05:24:29;64443.81;;;-141.13;100.00
70781;BME280;59514;48.810;2.134;2023-06-10T05:26:54;64443.81;;;-141.13;100.00
70781;BME280;59514;48.810;2.134;2023-06-10T05:29:19;64443.81;;;-141.13;100.00
70781;BME280;59514;48.810;2.134;2023-06-10T05:31:45;64443.81;;;-141.13;100.00
70781;BME280;59514;48.810;2.134;2023-06-10T05:34:10;64443.81;;;-141.13;100.00
70781;BME280;59514;48.810;2.134;2023-06-10T05:36:36;64443.81;;;-141.13;100.00
70781;BME280;59514;48.810;2.134;2023-06-10T05:39:01;64443.81;;;-141.13;100.00
70781;BME280;59514;48.810;2.134;2023-06-10T05:41:28;64443.81;;;-141.13;100.00
70781;BME280;59514;48.810;2.134;2023-06-10T05:43:53;64443.81;;;-141.13;100.00
70781;BME280;59514;48.810;2.134;2023-06-10T05:46:19;64443.81;;;-141.13;100.00
70781;BME280;59514;48.810;2.134;2023-06-10T05:48:45;64443.81;;;-141.13;100.00
70781;BME280;59514;48.810;2.134;2023-06-10T05:51:10;64443.81;;;-141.13;100.00
70781;BME280;59514;48.810;2.134;2023-06-10T05:53:35;64443.81;;;-141.13;100.00
70781;BME280;59514;48.810;2.134;2023-06-10T05:56:01;64443.81;;;-141.13;100.00
70781;BME280;59514;48.810;2.134;2023-06-10T05:58:26;64443.81;;;-141.13;100.00
70781;BME280;59514;48.810;2.134;2023-06-10T06:00:51;64443.81;;;-141.13;100.00
70781;BME280;59514;48.810;2.134;2023-06-10T06:03:17;64443.81;;;-141.13;100.00
70781;BME280;59514;48.810;2.134;2023-06-10T06:05:42;64443.81;;;-141.13;100.00
70781;BME280;59514;48.810;2.134;2023-06-10T06:08:09;64443.81;;;-141.13;100.00
70781;BME280;59514;48.810;2.134;2023-06-10T06:10:35;64443.81;;;-141.13;100.00
70781;BME280;59514;48.810;2.134;2023-06-10T06:13:01;64443.81;;;-141.13;100.00
70781;BME280;59514;48.810;2.134;2023-06-10T06:15:26;64443.81;;;-141.13;100.00
70781;BME280;59514;48.810;2.134;2023-06-10T06:17:52;64443.81;;;-141.13;100.00
70781;BME280;59514;48.810;2.134;2023-06-10T06:20:19;64443.81;;;-141.13;100.00
70781;BME280;59514;48.810;2.134;2023-06-10T06:22:44;64443.81;;;-141.13;100.00
70781;BME280;59514;48.810;2.134;2023-06-10T06:25:10;64443.81;;;-141.13;100.00
70781;BME280;59514;48.810;2.134;2023-06-10T06:27:35;64443.81;;;-141.13;100.00
70781;BME280;59514;48.810;2.134;2023-06-10T06:30:00;64443.81;;;-141.13;100.00
70781;BME280;59514;48.810;2.134;2023-06-10T06:32:26;64443.81;;;-141.13;100.00
70781;BME280;59514;48.810;2.134;2023-06-10T06:34:53;64443.81;;;-141.13;100.00
70781;BME280;59514;48.810;2.134;2023-06-10T06:37:21;64443.81;;;-141.13;100.00
70781;BME280;59514;48.810;2.134;2023-06-10T06:39:47;64443.81;;;-141.13;100.00
70781;BME280;59514;48.810;2.134;2023-06-10T06:42:13;64443.81;;;-141.13;100.00
70781;BME280;59514;48.810;2.134;2023-06-10T06:44:38;64443.81;;;-141.13;100.00
70781;BME280;59514;48.810;2.134;2023-06-10T06:47:04;64443.81;;;-141.13;100.00
70781;BME280;59514;48.810;2.134;2023-06-10T06:49:29;64443.81;;;-141.13;100.00
70781;BME280;59514;48.810;2.134;2023-06-10T06:51:55;64443.81;;;-141.13;100.00
70781;BME280;59514;48.810;2.134;2023-06-10T06:54:20;64443.81;;;-141.13;100.00
70781;BME280;59514;48.810;2.134;2023-06-10T06:56:45;64443.81;;;-141.13;100.00
70781;BME280;59514;48.810;2.134;2023-06-10T06:59:11;64443.81;;;-141.13;100.00
70781;BME280;59514;48.810;2.134;2023-06-10T07:01:39;64443.81;;;-141.13;100.00
70781;BME280;59514;48.810;2.134;2023-06-10T07:04:04;64443.81;;;-141.13;100.00
70781;BME280;59514;48.810;2.134;2023-06-10T07:06:30;64443.81;;;-141.13;100.00
70781;BME280;59514;48.810;2.134;2023-06-10T07:08:55;64443.81;;;-141.13;100.00
70781;BME280;59514;48.810;2.134;2023-06-10T07:11:20;64443.81;;;-141.13;100.00
70781;BME280;59514;48.810;2.134;2023-06-10T07:13:47;64443.81;;;-141.13;100.00
70781;BME280;59514;48.810;2.134;2023-06-10T07:16:12;64443.81;;;-141.13;100.00
70781;BME280;59514;48.810;2.134;2023-06-10T07:18:37;64443.81;;;-141.13;100.00
70781;BME280;59514;48.810;2.134;2023-06-10T07:21:03;64443.81;;;-141.13;100.00
70781;BME280;59514;48.810;2.134;2023-06-10T07:23:28;64443.81;;;-141.13;100.00
70781;BME280;59514;48.810;2.134;2023-06-10T07:25:53;64443.81;;;-141.13;100.00
70781;BME280;59514;48.810;2.134;2023-06-10T07:28:19;64443.81;;;-141.13;100.00
70781;BME280;59514;48.810;2.134;2023-06-10T07:30:44;64443.81;;;-141.13;100.00
70781;BME280;59514;48.810;2.134;2023-06-10T07:33:09;64443.81;;;-141.13;100.00
70781;BME280;59514;48.810;2.134;2023-06-10T07:35:36;64443.81;;;-141.13;100.00
70781;BME280;59514;48.810;2.134;2023-06-10T07:38:01;64443.81;;;-141.13;100.00
70781;BME280;59514;48.810;2.134;2023-06-10T07:40:26;64443.81;;;-141.13;100.00
70781;BME280;59514;48.810;2.134;2023-06-10T07:42:52;64443.81;;;-141.13;100.00
70781;BME280;59514;48.810;2.134;2023-06-10T07:45:18;64443.81;;;-141.13;100.00
70781;BME280;59514;48.810;2.134;2023-06-10T07:47:43;64443.81;;;-141.13;100.00
70781;BME280;59514;48.810;2.134;2023-06-10T07:50:09;64443.81;;;-141.13;100.00
70781;BME280;59514;48.810;2.134;2023-06-10T07:52:34;64443.81;;;-141.13;100.00
70781;BME280;59514;48.810;2.134;2023-06-10T07:55:00;64443.81;;;-141.13;100.00
70781;BME280;59514;48.810;2.134;2023-06-10T07:57:25;64443.81;;;-141.13;100.00
70781;BME280;59514;48.810;2.134;2023-06-10T07:59:50;64443.81;;;-141.13;100.00
70781;BME280;59514;48.810;2.134;2023-06-10T08:02:16;64443.81;;;-141.13;100.00
70781;BME280;59514;48.810;2.134;2023-06-10T08:04:41;64443.81;;;-141.13;100.00
70781;BME280;59514;48.810;2.134;2023-06-10T08:07:06;64443.81;;;-141.13;100.00
70781;BME280;59514;48.810;2.134;2023-06-10T08:09:32;64443.81;;;-141.13;100.00
70781;BME280;59514;48.810;2.134;2023-06-10T08:11:57;64443.81;;;-141.13;100.00
70781;BME280;59514;48.810;2.134;2023-06-10T08:14:23;64443.81;;;-141.13;100.00
70781;BME280;59514;48.810;2.134;2023-06-10T08:16:48;64443.81;;;-141.13;100.00
70781;BME280;59514;48.810;2.134;2023-06-10T08:19:13;64443.81;;;-141.13;100.00
70781;BME280;59514;48.810;2.134;2023-06-10T08:21:38;64443.81;;;-141.13;100.00
70781;BME280;59514;48.810;2.134;2023-06-10T08:24:09;64443.81;;;-141.13;100.00
70781;BME280;59514;48.810;2.134;2023-06-10T08:26:34;64443.81;;;-141.13;100.00
70781;BME280;59514;48.810;2.134;2023-06-10T08:29:00;64443.81;;;-141.13;100.00
70781;BME280;59514;48.810;2.134;2023-06-10T08:31:25;64443.81;;;-141.13;100.00
70781;BME280;59514;48.810;2.134;2023-06-10T08:33:50;64443.81;;;-141.13;100.00
70781;BME280;59514;48.810;2.134;2023-06-10T08:36:16;64443.81;;;-141.13;100.00
70781;BME280;59514;48.810;2.134;2023-06-10T08:38:41;64443.81;;;-141.13;100.00
70781;BME280;59514;48.810;2.134;2023-06-10T08:41:08;64443.81;;;-141.13;100.00
70781;BME280;59514;48.810;2.134;2023-06-10T08:46:28;64443.81;;;-141.13;100.00
70781;BME280;59514;48.810;2.134;2023-06-10T08:49:01;64443.81;;;-141.13;100.00
70781;BME280;59514;48.810;2.134;2023-06-10T08:51:28;64443.81;;;-141.13;100.00
70781;BME280;59514;48.810;2.134;2023-06-10T08:54:02;64443.81;;;-141.13;100.00
70781;BME280;59514;48.810;2.134;2023-06-10T08:56:29;64443.81;;;-141.13;100.00
70781;BME280;59514;48.810;2.134;2023-06-10T08:58:57;64443.81;;;-141.13;100.00
70781;BME280;59514;48.810;2.134;2023-06-10T09:01:24;64443.81;;;-141.13;100.00
70781;BME280;59514;48.810;2.134;2023-06-10T09:03:51;64443.81;;;-141.13;100.00
70781;BME280;59514;48.810;2.134;2023-06-10T09:06:17;64443.81;;;-141.13;100.00
70781;BME280;59514;48.810;2.134;2023-06-10T09:08:43;64443.81;;;-141.13;100.00
70781;BME280;59514;48.810;2.134;2023-06-10T09:11:08;64443.81;;;-141.13;100.00
70781;BME280;59514;48.810;2.134;2023-06-10T09:13:34;64443.81;;;-141.13;100.00
70781;BME280;59514;48.810;2.134;2023-06-10T09:16:00;64443.81;;;-141.13;100.00
70781;BME280;59514;48.810;2.134;2023-06-10T09:18:28;64443.81;;;-141.13;100.00
70781;BME280;59514;48.810;2.134;2023-06-10T09:20:53;64443.81;;;-141.13;100.00
70781;BME280;59514;48.810;2.134;2023-06-10T09:23:18;64443.81;;;-141.13;100.00
70781;BME280;59514;48.810;2.134;2023-06-10T09:25:44;64443.81;;;-141.13;100.00
70781;BME280;59514;48.810;2.134;2023-06-10T09:28:14;64443.81;;;-141.13;100.00
70781;BME280;59514;48.810;2.134;2023-06-10T09:30:40;64443.81;;;-141.13;100.00
70781;BME280;59514;48.810;2.134;2023-06-10T09:33:13;64443.81;;;-141.13;100.00
70781;BME280;59514;48.810;2.134;2023-06-10T09:35:47;64443.81;;;-141.13;100.00
70781;BME280;59514;48.810;2.134;2023-06-10T09:38:15;64443.81;;;-141.13;100.00
70781;BME280;59514;48.810;2.134;2023-06-10T09:40:54;64443.81;;;-141.13;100.00
70781;BME280;59514;48.810;2.134;2023-06-10T09:43:20;64443.81;;;-141.13;100.00
70781;BME280;59514;48.810;2.134;2023-06-10T09:45:51;64443.81;;;-141.13;100.00
70781;BME280;59514;48.810;2.134;2023-06-10T09:48:22;64443.81;;;-141.13;100.00
70781;BME280;59514;48.810;2.134;2023-06-10T09:50:48;64443.81;;;-141.13;100.00
70781;BME280;59514;48.810;2.134;2023-06-10T09:53:14;64443.81;;;-141.13;100.00
70781;BME280;59514;48.810;2.134;2023-06-10T09:55:41;64443.81;;;-141.13;100.00
70781;BME280;59514;48.810;2.134;2023-06-10T09:58:06;64443.81;;;-141.13;100.00
70781;BME280;59514;48.810;2.134;2023-06-10T10:00:34;64443.81;;;-141.13;100.00
70781;BME280;59514;48.810;2.134;2023-06-10T10:03:00;64443.81;;;-141.13;100.00
70781;BME280;59514;48.810;2.134;2023-06-10T10:05:26;64443.81;;;-141.13;100.00
70781;BME280;59514;48.810;2.134;2023-06-10T10:07:57;99789.75;;;26.58;54.21
70781;BME280;59514;48.810;2.134;2023-06-10T10:10:22;99794.78;;;26.56;54.65
70781;BME280;59514;48.810;2.134;2023-06-10T10:12:51;99799.84;;;26.41;54.60
70781;BME280;59514;48.810;2.134;2023-06-10T10:15:19;99795.94;;;26.67;54.15
70781;BME280;59514;48.810;2.134;2023-06-10T10:17:54;99794.44;;;26.93;53.88
70781;BME280;59514;48.810;2.134;2023-06-10T10:20:26;99790.84;;;27.05;52.08
70781;BME280;59514;48.810;2.134;2023-06-10T10:22:52;99792.28;;;26.75;51.63
70781;BME280;59514;48.810;2.134;2023-06-10T10:25:51;99789.06;;;26.61;51.77
70781;BME280;59514;48.810;2.134;2023-06-10T10:28:19;99789.31;;;26.80;52.45
70781;BME280;59514;48.810;2.134;2023-06-10T10:30:50;99790.69;;;27.25;51.89
70781;BME280;59514;48.810;2.134;2023-06-10T10:33:20;99781.81;;;27.44;51.04
70781;BME280;59514;48.810;2.134;2023-06-10T10:35:49;99784.00;;;27.39;50.71
70781;BME280;59514;48.810;2.134;2023-06-10T10:38:15;99789.91;;;27.80;51.62
70781;BME280;59514;48.810;2.134;2023-06-10T10:40:41;99788.66;;;28.05;51.27
70781;BME280;59514;48.810;2.134;2023-06-10T10:43:08;99778.22;;;28.30;49.57
70781;BME280;59514;48.810;2.134;2023-06-10T10:45:34;99778.50;;;28.56;48.79
70781;BME280;59514;48.810;2.134;2023-06-10T10:48:08;99780.97;;;28.77;46.75
70781;BME280;59514;48.810;2.134;2023-06-10T10:50:37;99782.59;;;28.97;48.29
70781;BME280;59514;48.810;2.134;2023-06-10T10:53:04;99784.81;;;29.07;46.78
70781;BME280;59514;48.810;2.134;2023-06-10T10:55:30;99782.59;;;28.97;47.06
70781;BME280;59514;48.810;2.134;2023-06-10T10:58:05;99775.06;;;29.13;47.67
70781;BME280;59514;48.810;2.134;2023-06-10T11:00:32;99778.53;;;29.10;48.34
70781;BME280;59514;48.810;2.134;2023-06-10T11:05:37;99771.81;;;29.46;45.02
70781;BME280;59514;48.810;2.134;2023-06-10T11:08:04;99773.63;;;29.57;46.11
70781;BME280;59514;48.810;2.134;2023-06-10T11:10:33;99771.88;;;29.11;44.45
70781;BME280;59514;48.810;2.134;2023-06-10T11:12:59;99772.31;;;29.13;44.87
70781;BME280;59514;48.810;2.134;2023-06-10T11:15:27;99774.84;;;29.22;44.04
70781;BME280;59514;48.810;2.134;2023-06-10T11:18:21;99771.50;;;29.32;43.86
70781;BME280;59514;48.810;2.134;2023-06-10T11:28:38;99768.66;;;29.09;44.91
70781;BME280;59514;48.810;2.134;2023-06-10T11:31:04;99760.97;;;29.56;46.00
70781;BME280;59514;48.810;2.134;2023-06-10T11:33:31;99767.22;;;29.53;43.80
70781;BME280;59514;48.810;2.134;2023-06-10T11:35:56;99766.47;;;29.95;41.40
70781;BME280;59514;48.810;2.134;2023-06-10T11:38:23;99777.63;;;29.79;44.59
70781;BME280;59514;48.810;2.134;2023-06-10T11:40:49;99772.50;;;29.81;42.21
70781;BME280;59514;48.810;2.134;2023-06-10T11:43:17;99770.13;;;29.41;42.48
70781;BME280;59514;48.810;2.134;2023-06-10T11:45:43;99771.31;;;29.79;43.00
70781;BME280;59514;48.810;2.134;2023-06-10T11:48:10;99774.41;;;29.58;43.83
70781;BME280;59514;48.810;2.134;2023-06-10T11:50:36;99773.41;;;29.47;43.41
70781;BME280;59514;48.810;2.134;2023-06-10T11:53:02;99776.81;;;29.59;42.96
70781;BME280;59514;48.810;2.134;2023-06-10T11:55:41;99776.81;;;29.59;42.53
70781;BME280;59514;48.810;2.134;2023-06-10T11:58:19;99784.84;;;30.06;41.38
70781;BME280;59514;48.810;2.134;2023-06-10T12:00:53;99772.22;;;30.09;39.65
70781;BME280;59514;48.810;2.134;2023-06-10T12:03:19;99787.47;;;29.77;41.34
70781;BME280;59514;48.810;2.134;2023-06-10T12:06:05;99783.25;;;29.83;40.56
70781;BME280;59514;48.810;2.134;2023-06-10T12:08:32;99780.28;;;30.17;40.76
70781;BME280;59514;48.810;2.134;2023-06-10T12:10:58;99777.13;;;29.73;40.98
70781;BME280;59514;48.810;2.134;2023-06-10T12:13:27;99784.78;;;29.61;41.19
70781;BME280;59514;48.810;2.134;2023-06-10T12:15:53;99777.81;;;29.90;40.29
70781;BME280;59514;48.810;2.134;2023-06-10T12:18:18;99777.84;;;30.35;40.63
70781;BME280;59514;48.810;2.134;2023-06-10T12:20:44;99773.00;;;31.07;40.15
70781;BME280;59514;48.810;2.134;2023-06-10T12:23:11;99775.16;;;31.20;38.40
70781;BME280;59514;48.810;2.134;2023-06-10T12:25:37;99771.25;;;30.92;39.89
70781;BME280;59514;48.810;2.134;2023-06-10T12:28:03;99772.81;;;31.52;38.71
70781;BME280;59514;48.810;2.134;2023-06-10T12:30:31;99774.56;;;31.04;37.82
70781;BME280;59514;48.810;2.134;2023-06-10T12:32:57;99776.78;;;30.43;39.88
70781;BME280;59514;48.810;2.134;2023-06-10T12:35:24;99774.25;;;30.83;39.21
70781;BME280;59514;48.810;2.134;2023-06-10T12:38:09;99772.19;;;31.66;37.84
70781;BME280;59514;48.810;2.134;2023-06-10T12:40:38;99771.28;;;30.95;39.94
70781;BME280;59514;48.810;2.134;2023-06-10T12:43:06;99769.97;;;30.63;40.51
70781;BME280;59514;48.810;2.134;2023-06-10T12:45:36;99771.63;;;31.50;38.14
70781;BME280;59514;48.810;2.134;2023-06-10T12:50:35;99762.69;;;32.47;36.13